Aloma, Florida
Current Conditions -  °F | °C
As of 11:53 AM on Saturday 25 Oct 2014 (Local Time) from KORL Reporting Station
Clear Clear  
Wind Chill: 76°   Ceiling: Unl
Heat Index: 76°   Visibility: 10mi
Dew Point: 55°   Wind: 8mph
Humidity: 48%   Direction: 350°N
Pressure: 30"   Gusts: NA
Location:  28.6093°N, 81.2979°W
Report Text: KORL 251553Z 35007KT 10SM CLR 24/13 A3000 RMK AO2 SLP163 T02440128
Loading
Personal Weather Stations






























Interactive Weather Map
Tropical Storm Tracking
New forecast layout! Learn more

10-Day Weather Forecast

Advertisements
Track Severe Weather on mobile